sensor_id;sensor_type;location;lat;lon;timestamp;temperature;humidity
43679;DHT22;29279;50.858;4.392;2023-08-30T00:00:17;17.60;99.90
43679;DHT22;29279;50.858;4.392;2023-08-30T00:02:44;17.40;99.90
43679;DHT22;29279;50.858;4.392;2023-08-30T00:05:09;17.40;99.90
43679;DHT22;29279;50.858;4.392;2023-08-30T00:07:36;17.30;99.90
43679;DHT22;29279;50.858;4.392;2023-08-30T00:10:01;17.30;99.90
43679;DHT22;29279;50.858;4.392;2023-08-30T00:12:27;17.20;99.90
43679;DHT22;29279;50.858;4.392;2023-08-30T00:14:53;17.30;99.90
43679;DHT22;29279;50.858;4.392;2023-08-30T00:17:19;17.20;99.90
43679;DHT22;29279;50.858;4.392;2023-08-30T00:19:45;17.20;99.90
43679;DHT22;29279;50.858;4.392;2023-08-30T00:22:11;17.10;99.90
43679;DHT22;29279;50.858;4.392;2023-08-30T00:24:38;17.10;99.90
43679;DHT22;29279;50.858;4.392;2023-08-30T00:27:04;17.10;99.90
43679;DHT22;29279;50.858;4.392;2023-08-30T00:29:29;17.00;99.90
43679;DHT22;29279;50.858;4.392;2023-08-30T00:31:55;17.00;99.90
43679;DHT22;29279;50.858;4.392;2023-08-30T00:34:21;17.10;99.90
43679;DHT22;29279;50.858;4.392;2023-08-30T00:36:47;16.90;99.90
43679;DHT22;29279;50.858;4.392;2023-08-30T00:39:13;16.80;99.90
43679;DHT22;29279;50.858;4.392;2023-08-30T00:41:39;16.80;99.90
43679;DHT22;29279;50.858;4.392;2023-08-30T00:44:05;16.70;99.90
43679;DHT22;29279;50.858;4.392;2023-08-30T00:46:31;16.70;99.90
43679;DHT22;29279;50.858;4.392;2023-08-30T00:48:58;16.60;99.90
43679;DHT22;29279;50.858;4.392;2023-08-30T00:51:25;16.50;99.90
43679;DHT22;29279;50.858;4.392;2023-08-30T00:53:50;16.50;99.90
43679;DHT22;29279;50.858;4.392;2023-08-30T00:56:17;16.50;99.90
43679;DHT22;29279;50.858;4.392;2023-08-30T00:58:44;16.50;99.90
43679;DHT22;29279;50.858;4.392;2023-08-30T01:01:09;16.50;99.90
43679;DHT22;29279;50.858;4.392;2023-08-30T01:03:35;16.40;99.90
43679;DHT22;29279;50.858;4.392;2023-08-30T01:06:03;16.40;99.90
43679;DHT22;29279;50.858;4.392;2023-08-30T01:08:28;16.50;99.90
43679;DHT22;29279;50.858;4.392;2023-08-30T01:14:13;16.30;99.90
43679;DHT22;29279;50.858;4.392;2023-08-30T01:16:41;16.30;99.90
43679;DHT22;29279;50.858;4.392;2023-08-30T01:27:41;16.20;99.90
43679;DHT22;29279;50.858;4.392;2023-08-30T01:30:09;16.10;99.90
43679;DHT22;29279;50.858;4.392;2023-08-30T01:32:36;16.00;99.90
43679;DHT22;29279;50.858;4.392;2023-08-30T01:35:04;15.90;99.90
43679;DHT22;29279;50.858;4.392;2023-08-30T01:37:30;15.90;99.90
43679;DHT22;29279;50.858;4.392;2023-08-30T01:39:57;15.90;99.90
43679;DHT22;29279;50.858;4.392;2023-08-30T01:42:25;15.80;99.90
43679;DHT22;29279;50.858;4.392;2023-08-30T01:44:55;15.90;99.90
43679;DHT22;29279;50.858;4.392;2023-08-30T01:47:25;16.00;99.90
43679;DHT22;29279;50.858;4.392;2023-08-30T01:49:53;16.10;99.90
43679;DHT22;29279;50.858;4.392;2023-08-30T01:52:20;16.10;99.90
43679;DHT22;29279;50.858;4.392;2023-08-30T01:54:47;16.10;99.90
43679;DHT22;29279;50.858;4.392;2023-08-30T01:57:13;16.00;99.90
43679;DHT22;29279;50.858;4.392;2023-08-30T01:59:39;15.90;99.90
43679;DHT22;29279;50.858;4.392;2023-08-30T02:02:05;15.90;99.90
43679;DHT22;29279;50.858;4.392;2023-08-30T02:04:30;15.80;99.90
43679;DHT22;29279;50.858;4.392;2023-08-30T02:07:04;15.80;99.90
43679;DHT22;29279;50.858;4.392;2023-08-30T02:09:54;15.90;99.90
43679;DHT22;29279;50.858;4.392;2023-08-30T02:12:23;16.00;99.90
43679;DHT22;29279;50.858;4.392;2023-08-30T02:14:51;16.00;99.90
43679;DHT22;29279;50.858;4.392;2023-08-30T02:17:18;16.00;99.90
43679;DHT22;29279;50.858;4.392;2023-08-30T02:19:45;15.90;99.90
43679;DHT22;29279;50.858;4.392;2023-08-30T02:22:11;15.90;99.90
43679;DHT22;29279;50.858;4.392;2023-08-30T02:24:37;16.00;99.90
43679;DHT22;29279;50.858;4.392;2023-08-30T02:27:03;16.00;99.90
43679;DHT22;29279;50.858;4.392;2023-08-30T02:29:29;16.00;99.90
43679;DHT22;29279;50.858;4.392;2023-08-30T02:31:55;16.00;99.90
43679;DHT22;29279;50.858;4.392;2023-08-30T02:34:20;16.00;99.90
43679;DHT22;29279;50.858;4.392;2023-08-30T02:36:46;16.00;99.90
43679;DHT22;29279;50.858;4.392;2023-08-30T02:39:14;16.10;99.90
43679;DHT22;29279;50.858;4.392;2023-08-30T02:41:40;16.00;99.90
43679;DHT22;29279;50.858;4.392;2023-08-30T02:44:11;16.10;99.90
43679;DHT22;29279;50.858;4.392;2023-08-30T02:46:37;16.10;99.90
43679;DHT22;29279;50.858;4.392;2023-08-30T02:49:06;16.20;99.90
43679;DHT22;29279;50.858;4.392;2023-08-30T02:51:32;16.20;99.90
43679;DHT22;29279;50.858;4.392;2023-08-30T02:53:58;16.10;99.90
43679;DHT22;29279;50.858;4.392;2023-08-30T02:56:23;16.10;99.90
43679;DHT22;29279;50.858;4.392;2023-08-30T02:58:50;16.00;99.90
43679;DHT22;29279;50.858;4.392;2023-08-30T03:01:16;16.00;99.90
43679;DHT22;29279;50.858;4.392;2023-08-30T03:03:42;16.00;99.90
43679;DHT22;29279;50.858;4.392;2023-08-30T03:06:07;16.00;99.90
43679;DHT22;29279;50.858;4.392;2023-08-30T03:08:33;16.00;99.90
43679;DHT22;29279;50.858;4.392;2023-08-30T03:11:12;16.00;99.90
43679;DHT22;29279;50.858;4.392;2023-08-30T03:13:38;16.00;99.90
43679;DHT22;29279;50.858;4.392;2023-08-30T03:16:11;16.10;99.90
43679;DHT22;29279;50.858;4.392;2023-08-30T03:18:37;16.10;99.90
43679;DHT22;29279;50.858;4.392;2023-08-30T03:21:03;15.90;99.90
43679;DHT22;29279;50.858;4.392;2023-08-30T03:23:29;15.90;99.90
43679;DHT22;29279;50.858;4.392;2023-08-30T03:25:56;15.90;99.90
43679;DHT22;29279;50.858;4.392;2023-08-30T03:28:22;15.90;99.90
43679;DHT22;29279;50.858;4.392;2023-08-30T03:30:47;16.00;99.90
43679;DHT22;29279;50.858;4.392;2023-08-30T03:33:13;16.00;99.90
43679;DHT22;29279;50.858;4.392;2023-08-30T03:35:39;15.90;99.90
43679;DHT22;29279;50.858;4.392;2023-08-30T03:38:04;15.80;99.90
43679;DHT22;29279;50.858;4.392;2023-08-30T03:40:30;15.80;99.90
43679;DHT22;29279;50.858;4.392;2023-08-30T03:42:56;15.90;99.90
43679;DHT22;29279;50.858;4.392;2023-08-30T03:45:22;15.90;99.90
43679;DHT22;29279;50.858;4.392;2023-08-30T03:47:48;15.70;99.90
43679;DHT22;29279;50.858;4.392;2023-08-30T03:50:14;15.60;99.90
43679;DHT22;29279;50.858;4.392;2023-08-30T03:52:39;15.70;99.90
43679;DHT22;29279;50.858;4.392;2023-08-30T03:55:05;15.60;99.90
43679;DHT22;29279;50.858;4.392;2023-08-30T03:57:31;15.60;99.90
43679;DHT22;29279;50.858;4.392;2023-08-30T03:59:57;15.60;99.90
43679;DHT22;29279;50.858;4.392;2023-08-30T04:02:22;15.60;99.90
43679;DHT22;29279;50.858;4.392;2023-08-30T04:04:48;15.50;99.90
43679;DHT22;29279;50.858;4.392;2023-08-30T04:07:15;15.40;99.90
43679;DHT22;29279;50.858;4.392;2023-08-30T04:09:41;15.70;99.90
43679;DHT22;29279;50.858;4.392;2023-08-30T04:12:07;15.60;99.90
43679;DHT22;29279;50.858;4.392;2023-08-30T04:14:32;15.50;99.90
43679;DHT22;29279;50.858;4.392;2023-08-30T04:16:58;15.40;99.90
43679;DHT22;29279;50.858;4.392;2023-08-30T04:19:23;15.40;99.90
43679;DHT22;29279;50.858;4.392;2023-08-30T04:21:49;15.40;99.90
43679;DHT22;29279;50.858;4.392;2023-08-30T04:24:15;15.50;99.90
43679;DHT22;29279;50.858;4.392;2023-08-30T04:26:41;15.60;99.90
43679;DHT22;29279;50.858;4.392;2023-08-30T04:29:07;15.50;99.90
43679;DHT22;29279;50.858;4.392;2023-08-30T04:31:33;15.40;99.90
43679;DHT22;29279;50.858;4.392;2023-08-30T04:33:58;15.40;99.90
43679;DHT22;29279;50.858;4.392;2023-08-30T04:36:24;15.30;99.90
43679;DHT22;29279;50.858;4.392;2023-08-30T04:38:50;15.30;99.90
43679;DHT22;29279;50.858;4.392;2023-08-30T04:41:15;15.30;99.90
43679;DHT22;29279;50.858;4.392;2023-08-30T04:43:42;15.20;99.90
43679;DHT22;29279;50.858;4.392;2023-08-30T04:46:07;15.20;99.90
43679;DHT22;29279;50.858;4.392;2023-08-30T04:48:33;15.10;99.90
43679;DHT22;29279;50.858;4.392;2023-08-30T04:51:03;14.80;99.90
43679;DHT22;29279;50.858;4.392;2023-08-30T04:53:29;14.80;99.90
43679;DHT22;29279;50.858;4.392;2023-08-30T04:55:55;14.70;99.90
43679;DHT22;29279;50.858;4.392;2023-08-30T04:58:21;14.70;99.90
43679;DHT22;29279;50.858;4.392;2023-08-30T05:00:49;14.70;99.90
43679;DHT22;29279;50.858;4.392;2023-08-30T05:03:15;14.70;99.90
43679;DHT22;29279;50.858;4.392;2023-08-30T05:05:45;14.70;99.90
43679;DHT22;29279;50.858;4.392;2023-08-30T05:08:10;14.60;99.90
43679;DHT22;29279;50.858;4.392;2023-08-30T05:10:36;14.60;99.90
43679;DHT22;29279;50.858;4.392;2023-08-30T05:13:02;14.50;99.90
43679;DHT22;29279;50.858;4.392;2023-08-30T05:15:29;14.50;99.90
43679;DHT22;29279;50.858;4.392;2023-08-30T05:17:54;14.50;99.90
43679;DHT22;29279;50.858;4.392;2023-08-30T05:20:20;14.40;99.90
43679;DHT22;29279;50.858;4.392;2023-08-30T05:22:46;14.40;99.90
43679;DHT22;29279;50.858;4.392;2023-08-30T05:25:11;14.20;99.90
43679;DHT22;29279;50.858;4.392;2023-08-30T05:27:38;14.20;99.90
43679;DHT22;29279;50.858;4.392;2023-08-30T05:30:04;14.20;99.90
43679;DHT22;29279;50.858;4.392;2023-08-30T05:32:30;14.10;99.90
43679;DHT22;29279;50.858;4.392;2023-08-30T05:34:57;14.00;99.90
43679;DHT22;29279;50.858;4.392;2023-08-30T05:37:23;14.00;99.90
43679;DHT22;29279;50.858;4.392;2023-08-30T05:39:48;14.10;99.90
43679;DHT22;29279;50.858;4.392;2023-08-30T05:42:14;14.20;99.90
43679;DHT22;29279;50.858;4.392;2023-08-30T05:44:40;14.20;99.90
43679;DHT22;29279;50.858;4.392;2023-08-30T05:47:05;14.10;99.90
43679;DHT22;29279;50.858;4.392;2023-08-30T05:49:31;14.30;99.90
43679;DHT22;29279;50.858;4.392;2023-08-30T05:51:57;14.20;99.90
43679;DHT22;29279;50.858;4.392;2023-08-30T05:54:22;14.20;99.90
43679;DHT22;29279;50.858;4.392;2023-08-30T05:56:48;14.20;99.90
43679;DHT22;29279;50.858;4.392;2023-08-30T05:59:13;14.40;99.90
43679;DHT22;29279;50.858;4.392;2023-08-30T06:01:39;14.40;99.90
43679;DHT22;29279;50.858;4.392;2023-08-30T06:04:05;14.40;99.90
43679;DHT22;29279;50.858;4.392;2023-08-30T06:06:34;14.30;99.90
43679;DHT22;29279;50.858;4.392;2023-08-30T06:09:00;14.50;99.90
43679;DHT22;29279;50.858;4.392;2023-08-30T06:11:25;14.50;99.90
43679;DHT22;29279;50.858;4.392;2023-08-30T06:13:51;14.60;99.90
43679;DHT22;29279;50.858;4.392;2023-08-30T06:16:17;14.70;99.90
43679;DHT22;29279;50.858;4.392;2023-08-30T06:18:42;14.70;99.90
43679;DHT22;29279;50.858;4.392;2023-08-30T06:21:08;14.80;99.90
43679;DHT22;29279;50.858;4.392;2023-08-30T06:23:33;14.80;99.90
43679;DHT22;29279;50.858;4.392;2023-08-30T06:26:00;14.90;99.90
43679;DHT22;29279;50.858;4.392;2023-08-30T06:28:26;14.70;99.90
43679;DHT22;29279;50.858;4.392;2023-08-30T06:30:51;14.60;99.90
43679;DHT22;29279;50.858;4.392;2023-08-30T06:33:17;14.40;99.90
43679;DHT22;29279;50.858;4.392;2023-08-30T06:35:42;14.30;99.90
43679;DHT22;29279;50.858;4.392;2023-08-30T06:38:08;14.20;99.90
43679;DHT22;29279;50.858;4.392;2023-08-30T06:40:34;14.10;99.90
43679;DHT22;29279;50.858;4.392;2023-08-30T06:43:00;14.10;99.90
43679;DHT22;29279;50.858;4.392;2023-08-30T06:45:26;14.10;99.90
43679;DHT22;29279;50.858;4.392;2023-08-30T06:47:52;14.10;99.90
43679;DHT22;29279;50.858;4.392;2023-08-30T06:50:18;14.00;99.90
43679;DHT22;29279;50.858;4.392;2023-08-30T06:52:44;14.10;99.90
43679;DHT22;29279;50.858;4.392;2023-08-30T06:55:09;14.10;99.90
43679;DHT22;29279;50.858;4.392;2023-08-30T06:57:35;14.10;99.90
43679;DHT22;29279;50.858;4.392;2023-08-30T07:00:01;14.10;99.90
43679;DHT22;29279;50.858;4.392;2023-08-30T07:02:37;14.20;99.90
43679;DHT22;29279;50.858;4.392;2023-08-30T07:05:03;14.10;99.90
43679;DHT22;29279;50.858;4.392;2023-08-30T07:07:30;14.20;99.90
43679;DHT22;29279;50.858;4.392;2023-08-30T07:09:56;14.30;99.90
43679;DHT22;29279;50.858;4.392;2023-08-30T07:12:22;14.20;99.90
43679;DHT22;29279;50.858;4.392;2023-08-30T07:14:48;14.20;99.90
43679;DHT22;29279;50.858;4.392;2023-08-30T07:17:13;14.20;99.90
43679;DHT22;29279;50.858;4.392;2023-08-30T07:19:39;14.30;99.90
43679;DHT22;29279;50.858;4.392;2023-08-30T07:22:05;14.30;99.90
43679;DHT22;29279;50.858;4.392;2023-08-30T07:24:30;14.40;99.90
43679;DHT22;29279;50.858;4.392;2023-08-30T07:26:56;14.40;99.90
43679;DHT22;29279;50.858;4.392;2023-08-30T07:29:22;14.50;99.90
43679;DHT22;29279;50.858;4.392;2023-08-30T07:31:47;14.40;99.90
43679;DHT22;29279;50.858;4.392;2023-08-30T07:34:13;14.40;99.90
43679;DHT22;29279;50.858;4.392;2023-08-30T07:36:39;14.40;99.90
43679;DHT22;29279;50.858;4.392;2023-08-30T07:39:04;14.40;99.90
43679;DHT22;29279;50.858;4.392;2023-08-30T07:41:33;14.40;99.90
43679;DHT22;29279;50.858;4.392;2023-08-30T07:43:59;14.40;99.90
43679;DHT22;29279;50.858;4.392;2023-08-30T07:46:24;14.50;99.90
43679;DHT22;29279;50.858;4.392;2023-08-30T07:48:51;14.60;99.90
43679;DHT22;29279;50.858;4.392;2023-08-30T07:51:17;14.50;99.90
43679;DHT22;29279;50.858;4.392;2023-08-30T07:53:42;14.60;99.90
43679;DHT22;29279;50.858;4.392;2023-08-30T07:56:08;14.70;99.90
43679;DHT22;29279;50.858;4.392;2023-08-30T07:58:34;14.80;99.90
43679;DHT22;29279;50.858;4.392;2023-08-30T08:01:00;14.80;99.90
43679;DHT22;29279;50.858;4.392;2023-08-30T08:03:25;14.70;99.90
43679;DHT22;29279;50.858;4.392;2023-08-30T08:05:51;14.70;99.90
43679;DHT22;29279;50.858;4.392;2023-08-30T08:08:17;14.70;99.90
43679;DHT22;29279;50.858;4.392;2023-08-30T08:10:43;14.80;99.90
43679;DHT22;29279;50.858;4.392;2023-08-30T08:13:09;14.80;99.90
43679;DHT22;29279;50.858;4.392;2023-08-30T08:15:35;14.90;99.90
43679;DHT22;29279;50.858;4.392;2023-08-30T08:18:01;15.00;99.90
43679;DHT22;29279;50.858;4.392;2023-08-30T08:20:28;15.00;99.90
43679;DHT22;29279;50.858;4.392;2023-08-30T08:22:54;15.10;99.90
43679;DHT22;29279;50.858;4.392;2023-08-30T08:25:20;15.10;99.90
43679;DHT22;29279;50.858;4.392;2023-08-30T08:27:47;15.20;99.90
43679;DHT22;29279;50.858;4.392;2023-08-30T08:30:13;15.20;99.90
43679;DHT22;29279;50.858;4.392;2023-08-30T08:32:39;15.20;99.90
43679;DHT22;29279;50.858;4.392;2023-08-30T08:35:05;15.30;99.90
43679;DHT22;29279;50.858;4.392;2023-08-30T08:37:31;15.30;99.90
43679;DHT22;29279;50.858;4.392;2023-08-30T08:39:57;15.30;99.90
43679;DHT22;29279;50.858;4.392;2023-08-30T08:42:23;15.40;99.90
43679;DHT22;29279;50.858;4.392;2023-08-30T08:44:51;15.50;99.90
43679;DHT22;29279;50.858;4.392;2023-08-30T08:47:20;15.50;99.90
43679;DHT22;29279;50.858;4.392;2023-08-30T08:49:47;15.60;99.90
43679;DHT22;29279;50.858;4.392;2023-08-30T08:52:14;15.70;99.90
43679;DHT22;29279;50.858;4.392;2023-08-30T08:54:40;15.70;99.90
43679;DHT22;29279;50.858;4.392;2023-08-30T08:57:07;15.60;99.90
43679;DHT22;29279;50.858;4.392;2023-08-30T08:59:33;15.70;99.90
43679;DHT22;29279;50.858;4.392;2023-08-30T09:02:02;15.80;99.90
43679;DHT22;29279;50.858;4.392;2023-08-30T09:04:30;15.80;99.90
43679;DHT22;29279;50.858;4.392;2023-08-30T09:06:56;16.00;99.90
43679;DHT22;29279;50.858;4.392;2023-08-30T09:09:25;16.10;99.90
43679;DHT22;29279;50.858;4.392;2023-08-30T09:11:50;16.10;99.90
43679;DHT22;29279;50.858;4.392;2023-08-30T09:14:16;16.20;99.90
43679;DHT22;29279;50.858;4.392;2023-08-30T09:16:42;16.20;99.90
43679;DHT22;29279;50.858;4.392;2023-08-30T09:19:08;16.20;99.90
43679;DHT22;29279;50.858;4.392;2023-08-30T09:21:36;16.50;99.90
43679;DHT22;29279;50.858;4.392;2023-08-30T09:24:06;16.50;99.90
43679;DHT22;29279;50.858;4.392;2023-08-30T09:26:34;16.70;99.90
43679;DHT22;29279;50.858;4.392;2023-08-30T09:29:05;16.80;99.90
43679;DHT22;29279;50.858;4.392;2023-08-30T09:31:37;16.90;99.90
43679;DHT22;29279;50.858;4.392;2023-08-30T09:34:04;16.80;99.90
43679;DHT22;29279;50.858;4.392;2023-08-30T09:36:35;16.90;99.90
43679;DHT22;29279;50.858;4.392;2023-08-30T09:39:19;16.90;99.90
43679;DHT22;29279;50.858;4.392;2023-08-30T09:41:49;16.90;99.90
43679;DHT22;29279;50.858;4.392;2023-08-30T09:44:19;17.00;99.90
43679;DHT22;29279;50.858;4.392;2023-08-30T09:46:53;17.10;99.90
43679;DHT22;29279;50.858;4.392;2023-08-30T09:49:20;17.10;99.90
43679;DHT22;29279;50.858;4.392;2023-08-30T09:51:47;17.10;99.90
43679;DHT22;29279;50.858;4.392;2023-08-30T09:54:23;17.20;99.90
43679;DHT22;29279;50.858;4.392;2023-08-30T09:56:49;17.20;99.90
43679;DHT22;29279;50.858;4.392;2023-08-30T09:59:18;17.00;99.90
43679;DHT22;29279;50.858;4.392;2023-08-30T10:01:46;16.90;99.90
43679;DHT22;29279;50.858;4.392;2023-08-30T10:04:11;16.80;99.90
43679;DHT22;29279;50.858;4.392;2023-08-30T10:06:38;16.80;99.90
43679;DHT22;29279;50.858;4.392;2023-08-30T10:09:05;16.90;99.90
43679;DHT22;29279;50.858;4.392;2023-08-30T10:11:34;16.90;99.90
43679;DHT22;29279;50.858;4.392;2023-08-30T10:14:00;16.80;99.90
43679;DHT22;29279;50.858;4.392;2023-08-30T10:16:27;16.70;99.90
43679;DHT22;29279;50.858;4.392;2023-08-30T10:19:02;16.80;99.90
43679;DHT22;29279;50.858;4.392;2023-08-30T10:21:29;16.80;99.90
43679;DHT22;29279;50.858;4.392;2023-08-30T10:23:56;16.90;99.90
43679;DHT22;29279;50.858;4.392;2023-08-30T10:26:24;17.00;99.90
43679;DHT22;29279;50.858;4.392;2023-08-30T10:28:53;17.10;99.90
43679;DHT22;29279;50.858;4.392;2023-08-30T10:31:19;17.30;99.90
43679;DHT22;29279;50.858;4.392;2023-08-30T10:33:49;17.40;99.90
43679;DHT22;29279;50.858;4.392;2023-08-30T10:36:25;17.50;99.90
43679;DHT22;29279;50.858;4.392;2023-08-30T10:38:53;17.60;99.90
43679;DHT22;29279;50.858;4.392;2023-08-30T10:41:24;17.70;99.90
43679;DHT22;29279;50.858;4.392;2023-08-30T10:43:52;17.90;99.90
43679;DHT22;29279;50.858;4.392;2023-08-30T10:46:29;18.20;99.90
43679;DHT22;29279;50.858;4.392;2023-08-30T10:48:56;18.40;99.90
43679;DHT22;29279;50.858;4.392;2023-08-30T10:51:38;18.40;99.90
43679;DHT22;29279;50.858;4.392;2023-08-30T10:54:12;18.40;99.90
43679;DHT22;29279;50.858;4.392;2023-08-30T10:59:19;18.30;99.90
43679;DHT22;29279;50.858;4.392;2023-08-30T11:01:49;18.30;99.90
43679;DHT22;29279;50.858;4.392;2023-08-30T11:04:17;18.40;99.90
43679;DHT22;29279;50.858;4.392;2023-08-30T11:06:48;18.50;99.90
43679;DHT22;29279;50.858;4.392;2023-08-30T11:09:16;18.50;99.90
43679;DHT22;29279;50.858;4.392;2023-08-30T11:11:46;18.40;99.90
43679;DHT22;29279;50.858;4.392;2023-08-30T11:14:12;18.50;99.90
43679;DHT22;29279;50.858;4.392;2023-08-30T11:16:38;18.60;99.90
43679;DHT22;29279;50.858;4.392;2023-08-30T11:19:05;19.10;99.90
43679;DHT22;29279;50.858;4.392;2023-08-30T11:21:32;20.40;99.90
43679;DHT22;29279;50.858;4.392;2023-08-30T11:23:58;21.00;99.90
43679;DHT22;29279;50.858;4.392;2023-08-30T11:26:24;21.10;99.90
43679;DHT22;29279;50.858;4.392;2023-08-30T11:28:50;20.90;99.90
43679;DHT22;29279;50.858;4.392;2023-08-30T11:31:27;21.00;99.90
43679;DHT22;29279;50.858;4.392;2023-08-30T11:33:54;21.20;99.90
43679;DHT22;29279;50.858;4.392;2023-08-30T11:36:21;20.90;99.90
43679;DHT22;29279;50.858;4.392;2023-08-30T11:38:51;20.60;99.90
43679;DHT22;29279;50.858;4.392;2023-08-30T11:41:17;20.60;99.90
43679;DHT22;29279;50.858;4.392;2023-08-30T11:43:43;21.00;99.90
43679;DHT22;29279;50.858;4.392;2023-08-30T11:46:09;20.60;99.90
43679;DHT22;29279;50.858;4.392;2023-08-30T11:48:35;21.30;99.90
43679;DHT22;29279;50.858;4.392;2023-08-30T11:51:01;23.30;99.90
43679;DHT22;29279;50.858;4.392;2023-08-30T11:53:28;24.30;99.90
43679;DHT22;29279;50.858;4.392;2023-08-30T11:55:54;23.70;99.90
43679;DHT22;29279;50.858;4.392;2023-08-30T11:58:20;23.40;99.90
43679;DHT22;29279;50.858;4.392;2023-08-30T12:00:48;22.30;99.90
43679;DHT22;29279;50.858;4.392;2023-08-30T12:03:15;21.60;99.90
43679;DHT22;29279;50.858;4.392;2023-08-30T12:05:47;21.10;99.90
43679;DHT22;29279;50.858;4.392;2023-08-30T12:08:20;20.60;99.90
43679;DHT22;29279;50.858;4.392;2023-08-30T12:10:46;20.10;99.90
43679;DHT22;29279;50.858;4.392;2023-08-30T12:13:28;20.40;99.90
43679;DHT22;29279;50.858;4.392;2023-08-30T12:15:55;21.20;99.90
43679;DHT22;29279;50.858;4.392;2023-08-30T12:18:25;21.10;99.90
43679;DHT22;29279;50.858;4.392;2023-08-30T12:21:03;21.20;99.90
43679;DHT22;29279;50.858;4.392;2023-08-30T12:23:32;21.60;99.90
43679;DHT22;29279;50.858;4.392;2023-08-30T12:26:06;21.50;99.90
43679;DHT22;29279;50.858;4.392;2023-08-30T12:28:33;22.60;99.90
43679;DHT22;29279;50.858;4.392;2023-08-30T12:31:00;23.00;98.70
43679;DHT22;29279;50.858;4.392;2023-08-30T12:33:26;24.40;96.80
43679;DHT22;29279;50.858;4.392;2023-08-30T12:35:53;25.50;95.40
43679;DHT22;29279;50.858;4.392;2023-08-30T12:38:19;26.30;93.80
43679;DHT22;29279;50.858;4.392;2023-08-30T12:40:49;27.00;92.50
43679;DHT22;29279;50.858;4.392;2023-08-30T12:43:15;27.80;92.50
43679;DHT22;29279;50.858;4.392;2023-08-30T12:45:42;27.90;91.20
43679;DHT22;29279;50.858;4.392;2023-08-30T12:48:08;28.00;90.40
43679;DHT22;29279;50.858;4.392;2023-08-30T12:50:35;26.60;90.40
43679;DHT22;29279;50.858;4.392;2023-08-30T12:53:05;25.30;90.50
43679;DHT22;29279;50.858;4.392;2023-08-30T12:55:31;24.30;91.80
43679;DHT22;29279;50.858;4.392;2023-08-30T12:57:56;23.50;92.50
43679;DHT22;29279;50.858;4.392;2023-08-30T13:00:23;23.90;92.80
43679;DHT22;29279;50.858;4.392;2023-08-30T13:02:49;26.00;92.00
43679;DHT22;29279;50.858;4.392;2023-08-30T13:05:14;27.40;90.60
43679;DHT22;29279;50.858;4.392;2023-08-30T13:07:40;28.40;90.00
43679;DHT22;29279;50.858;4.392;2023-08-30T13:10:06;28.90;87.30
43679;DHT22;29279;50.858;4.392;2023-08-30T13:12:32;29.10;87.40
43679;DHT22;29279;50.858;4.392;2023-08-30T13:14:58;28.50;85.80
43679;DHT22;29279;50.858;4.392;2023-08-30T13:17:24;26.60;85.60
43679;DHT22;29279;50.858;4.392;2023-08-30T13:19:49;27.40;86.70
43679;DHT22;29279;50.858;4.392;2023-08-30T13:22:16;28.50;86.40
43679;DHT22;29279;50.858;4.392;2023-08-30T13:24:43;29.50;85.00
43679;DHT22;29279;50.858;4.392;2023-08-30T13:27:09;29.70;84.70
43679;DHT22;29279;50.858;4.392;2023-08-30T13:29:35;30.00;83.80
43679;DHT22;29279;50.858;4.392;2023-08-30T13:32:01;30.80;83.70
43679;DHT22;29279;50.858;4.392;2023-08-30T13:34:27;30.90;82.80
43679;DHT22;29279;50.858;4.392;2023-08-30T13:36:53;29.10;83.00
43679;DHT22;29279;50.858;4.392;2023-08-30T13:39:19;27.60;85.10
43679;DHT22;29279;50.858;4.392;2023-08-30T13:41:47;26.20;86.10
43679;DHT22;29279;50.858;4.392;2023-08-30T13:44:14;25.00;85.80
43679;DHT22;29279;50.858;4.392;2023-08-30T13:46:39;24.30;87.80
43679;DHT22;29279;50.858;4.392;2023-08-30T13:49:05;23.30;89.80
43679;DHT22;29279;50.858;4.392;2023-08-30T13:51:31;22.70;90.80
43679;DHT22;29279;50.858;4.392;2023-08-30T13:53:57;22.30;91.60
43679;DHT22;29279;50.858;4.392;2023-08-30T13:56:23;22.10;92.10
43679;DHT22;29279;50.858;4.392;2023-08-30T13:58:50;21.90;92.60
43679;DHT22;29279;50.858;4.392;2023-08-30T14:01:16;23.00;92.00
43679;DHT22;29279;50.858;4.392;2023-08-30T14:03:45;22.70;92.20
43679;DHT22;29279;50.858;4.392;2023-08-30T14:06:11;22.20;93.00
43679;DHT22;29279;50.858;4.392;2023-08-30T14:08:37;21.90;93.60
43679;DHT22;29279;50.858;4.392;2023-08-30T14:11:02;21.90;93.70
43679;DHT22;29279;50.858;4.392;2023-08-30T14:13:29;22.80;92.70
43679;DHT22;29279;50.858;4.392;2023-08-30T14:16:01;23.30;91.80
43679;DHT22;29279;50.858;4.392;2023-08-30T14:18:28;22.90;92.30
43679;DHT22;29279;50.858;4.392;2023-08-30T14:20:58;22.40;93.00
43679;DHT22;29279;50.858;4.392;2023-08-30T14:23:25;22.70;93.70
43679;DHT22;29279;50.858;4.392;2023-08-30T14:26:02;22.70;93.50
43679;DHT22;29279;50.858;4.392;2023-08-30T14:28:34;22.90;93.80
43679;DHT22;29279;50.858;4.392;2023-08-30T14:31:00;22.70;94.00
43679;DHT22;29279;50.858;4.392;2023-08-30T14:33:25;22.30;94.50
43679;DHT22;29279;50.858;4.392;2023-08-30T14:35:51;22.00;94.90
43679;DHT22;29279;50.858;4.392;2023-08-30T14:38:17;21.90;95.00
43679;DHT22;29279;50.858;4.392;2023-08-30T14:40:42;21.90;94.50
43679;DHT22;29279;50.858;4.392;2023-08-30T14:43:08;21.80;94.70
43679;DHT22;29279;50.858;4.392;2023-08-30T14:45:34;22.30;94.50
43679;DHT22;29279;50.858;4.392;2023-08-30T14:47:59;22.50;94.30
43679;DHT22;29279;50.858;4.392;2023-08-30T14:50:25;22.80;93.70
43679;DHT22;29279;50.858;4.392;2023-08-30T14:52:51;22.90;93.40
43679;DHT22;29279;50.858;4.392;2023-08-30T14:55:21;23.40;92.70
43679;DHT22;29279;50.858;4.392;2023-08-30T14:57:47;23.10;93.00
43679;DHT22;29279;50.858;4.392;2023-08-30T15:00:13;23.10;93.60
43679;DHT22;29279;50.858;4.392;2023-08-30T15:02:38;23.50;92.90
43679;DHT22;29279;50.858;4.392;2023-08-30T15:05:04;23.80;92.00
43679;DHT22;29279;50.858;4.392;2023-08-30T15:07:30;23.70;92.00
43679;DHT22;29279;50.858;4.392;2023-08-30T15:09:55;23.40;92.70
43679;DHT22;29279;50.858;4.392;2023-08-30T15:12:21;22.60;93.60
43679;DHT22;29279;50.858;4.392;2023-08-30T15:14:47;22.10;94.10
43679;DHT22;29279;50.858;4.392;2023-08-30T15:17:13;22.30;94.40
43679;DHT22;29279;50.858;4.392;2023-08-30T15:19:39;22.70;94.10
43679;DHT22;29279;50.858;4.392;2023-08-30T15:22:05;22.70;94.00
43679;DHT22;29279;50.858;4.392;2023-08-30T15:24:30;22.60;93.80
43679;DHT22;29279;50.858;4.392;2023-08-30T15:26:56;22.50;93.80
43679;DHT22;29279;50.858;4.392;2023-08-30T15:29:22;22.30;94.00
43679;DHT22;29279;50.858;4.392;2023-08-30T15:31:47;22.00;94.20
43679;DHT22;29279;50.858;4.392;2023-08-30T15:34:20;21.80;94.40
43679;DHT22;29279;50.858;4.392;2023-08-30T15:36:46;21.80;94.30
43679;DHT22;29279;50.858;4.392;2023-08-30T15:39:14;21.70;94.30
43679;DHT22;29279;50.858;4.392;2023-08-30T15:41:42;21.70;94.00